Kittredge, Colorado
Current Conditions -  °F | °C
As of 8:47 PM on Tuesday 21 Oct 2014 (Local Time) from KBJC Reporting Station
Broken Clouds Broken Clouds  
Wind Chill: 59°   Ceiling: 11000
Heat Index: 59°   Visibility: 30mi
Dew Point: 37°   Wind: 29mph
Humidity: 45%   Direction: 270°W
Pressure: 29.97"   Gusts: 41mph
Location:  39.66°N, 105.3°W
Report Text: KBJC 220247Z 27025G36KT 30SM SCT080 BKN110 15/03 A2997
Loading
Personal Weather Stations






























Interactive Weather Map
Tropical Storm Tracking
New forecast layout! Learn more

10-Day Weather Forecast

Advertisements
Track Severe Weather on mobile